createdAt,value
2023-02-13T00:01:07.422Z,-0.60
2023-02-13T00:03:36.958Z,-0.60
2023-02-13T00:06:05.044Z,-0.60
2023-02-13T00:16:01.066Z,-0.60
2023-02-13T00:21:01.719Z,-0.50
2023-02-13T00:23:32.023Z,-0.50
2023-02-13T00:28:28.785Z,-0.40
2023-02-13T00:31:04.272Z,-0.50
2023-02-13T00:33:32.415Z,-0.40
2023-02-13T00:36:06.762Z,-0.40
2023-02-13T00:48:30.524Z,-0.50
2023-02-13T00:53:29.362Z,-0.50
2023-02-13T01:00:56.021Z,-0.50
2023-02-13T01:05:53.242Z,-0.60
2023-02-13T01:08:22.133Z,-0.50
2023-02-13T01:10:51.843Z,-0.60
2023-02-13T01:13:19.942Z,-0.60
2023-02-13T01:28:12.273Z,-0.80
2023-02-13T01:38:05.380Z,-0.70
2023-02-13T01:45:32.324Z,-0.80
2023-02-13T01:48:05.817Z,-0.80
2023-02-13T01:50:37.713Z,-0.80
2023-02-13T01:53:10.176Z,-0.80
2023-02-13T01:55:44.858Z,-0.80
2023-02-13T01:58:16.019Z,-0.80
2023-02-13T02:00:49.718Z,-0.80
2023-02-13T02:03:24.996Z,-0.90
2023-02-13T02:05:56.414Z,-0.80
2023-02-13T02:08:25.355Z,-0.80
2023-02-13T02:10:53.728Z,-0.90
2023-02-13T02:13:22.818Z,-0.90
2023-02-13T02:15:52.763Z,-0.90
2023-02-13T02:18:23.707Z,-0.80
2023-02-13T02:21:30.454Z,-0.80
2023-02-13T02:24:27.381Z,-0.90
2023-02-13T02:27:18.141Z,-0.90
2023-02-13T02:30:19.070Z,-0.90
2023-02-13T02:33:09.918Z,-0.90
2023-02-13T02:35:47.462Z,-0.90
2023-02-13T02:38:28.502Z,-0.90
2023-02-13T02:41:02.948Z,-0.90
2023-02-13T02:43:41.616Z,-0.90
2023-02-13T02:46:18.163Z,-1.00
2023-02-13T02:49:12.316Z,-1.00
2023-02-13T02:51:47.896Z,-1.00
2023-02-13T02:54:40.011Z,-1.10
2023-02-13T02:57:14.025Z,-1.00
2023-02-13T03:00:01.962Z,-1.10
2023-02-13T03:02:48.859Z,-1.10
2023-02-13T03:05:40.381Z,-1.10
2023-02-13T03:08:08.892Z,-1.10
2023-02-13T03:10:57.537Z,-1.20
2023-02-13T03:13:40.177Z,-1.10
2023-02-13T03:19:16.143Z,-1.10
2023-02-13T03:22:08.838Z,-1.20
2023-02-13T03:24:47.794Z,-1.20
2023-02-13T03:27:44.230Z,-1.10
2023-02-13T03:30:22.732Z,-1.10
2023-02-13T03:33:00.976Z,-1.10
2023-02-13T03:35:56.282Z,-1.10
2023-02-13T03:38:30.955Z,-1.10
2023-02-13T03:41:20.349Z,-1.10
2023-02-13T03:43:57.674Z,-1.20
2023-02-13T03:46:27.578Z,-1.10
2023-02-13T03:49:14.906Z,-1.10
2023-02-13T03:51:47.722Z,-1.10
2023-02-13T03:54:22.573Z,-1.20
2023-02-13T03:57:10.867Z,-1.10
2023-02-13T04:02:15.668Z,-1.20
2023-02-13T04:04:51.703Z,-1.20
2023-02-13T04:07:30.710Z,-1.20
2023-02-13T04:10:03.746Z,-1.20
2023-02-13T04:12:39.885Z,-1.20
2023-02-13T04:15:13.664Z,-1.20
2023-02-13T04:17:46.200Z,-1.30
2023-02-13T04:22:44.570Z,-1.30
2023-02-13T04:25:16.620Z,-1.30
2023-02-13T04:27:44.569Z,-1.40
2023-02-13T04:30:13.724Z,-1.50
2023-02-13T04:40:08.788Z,1.30
2023-02-13T04:42:38.089Z,-1.40
2023-02-13T04:52:31.240Z,-1.50
2023-02-13T04:59:57.733Z,-1.60
2023-02-13T05:04:54.012Z,-1.60
2023-02-13T05:17:17.406Z,-1.70
2023-02-13T05:24:59.397Z,-1.70
2023-02-13T05:32:25.311Z,-1.70
2023-02-13T05:49:44.400Z,-1.60
2023-02-13T05:54:40.823Z,-1.50
2023-02-13T06:07:03.470Z,-1.60
2023-02-13T06:09:31.408Z,-1.50
2023-02-13T06:14:27.633Z,-1.50
2023-02-13T06:16:55.528Z,-1.50
2023-02-13T06:21:51.855Z,-1.40
2023-02-13T06:24:21.301Z,-1.40
2023-02-13T06:26:49.216Z,-1.30
2023-02-13T06:34:13.964Z,-1.40
2023-02-13T06:39:11.016Z,-1.40
2023-02-13T06:41:42.752Z,-1.40
2023-02-13T06:51:39.198Z,-1.40
2023-02-13T06:56:37.320Z,-1.30
2023-02-13T06:59:06.832Z,-1.30
2023-02-13T07:09:02.363Z,-1.30
2023-02-13T07:16:28.655Z,-1.40
2023-02-13T07:31:36.058Z,-1.30
2023-02-13T07:41:29.128Z,-1.40
2023-02-13T07:48:55.215Z,-1.30
2023-02-13T08:03:52.524Z,-1.00
2023-02-13T08:06:22.632Z,-1.00
2023-02-13T08:11:53.749Z,-0.80
2023-02-13T08:21:48.629Z,-0.80
2023-02-13T08:39:09.856Z,-0.50
2023-02-13T08:44:06.510Z,-0.40
2023-02-13T08:56:29.166Z,-0.20
2023-02-13T09:01:25.570Z,0.00
2023-02-13T09:13:49.201Z,0.20
2023-02-13T09:18:48.476Z,0.10
2023-02-13T09:26:15.597Z,0.40
2023-02-13T09:28:44.117Z,0.30
2023-02-13T09:31:16.606Z,0.40
2023-02-13T09:36:15.755Z,0.50
2023-02-13T09:38:45.003Z,0.50
2023-02-13T09:41:17.385Z,0.50
2023-02-13T09:43:50.734Z,0.50
2023-02-13T09:46:22.617Z,0.60
2023-02-13T09:48:54.404Z,0.70
2023-02-13T09:51:25.646Z,1.00
2023-02-13T09:53:56.520Z,0.80
2023-02-13T09:56:37.666Z,0.90
2023-02-13T09:59:16.011Z,1.00
2023-02-13T10:01:48.753Z,1.10
2023-02-13T10:04:28.476Z,1.20
2023-02-13T10:07:06.927Z,1.30
2023-02-13T10:09:39.907Z,1.50
2023-02-13T10:12:37.010Z,1.40
2023-02-13T10:15:15.720Z,1.50
2023-02-13T10:17:48.966Z,1.50
2023-02-13T10:20:29.703Z,1.30
2023-02-13T10:23:01.442Z,1.20
2023-02-13T10:25:33.341Z,1.20
2023-02-13T10:28:06.940Z,1.40
2023-02-13T10:30:37.787Z,1.60
2023-02-13T10:33:20.347Z,1.60
2023-02-13T10:35:54.840Z,1.70
2023-02-13T10:38:24.249Z,1.80
2023-02-13T10:41:16.138Z,1.80
2023-02-13T10:43:56.123Z,1.80
2023-02-13T10:46:30.196Z,1.80
2023-02-13T10:49:12.161Z,1.90
2023-02-13T10:51:46.009Z,2.10
2023-02-13T10:54:26.080Z,2.20
2023-02-13T10:57:05.084Z,2.00
2023-02-13T10:59:45.868Z,2.20
2023-02-13T11:02:23.481Z,2.40
2023-02-13T11:04:55.379Z,2.50
2023-02-13T11:07:26.109Z,2.70
2023-02-13T11:09:59.571Z,2.70
2023-02-13T11:12:30.687Z,2.80
2023-02-13T11:15:00.516Z,3.00
2023-02-13T11:17:32.392Z,3.20
2023-02-13T11:20:03.989Z,3.30
2023-02-13T11:22:34.345Z,3.10
2023-02-13T11:25:04.901Z,3.00
2023-02-13T11:27:35.446Z,3.10
2023-02-13T11:30:06.362Z,2.90
2023-02-13T11:32:36.131Z,3.10
2023-02-13T11:37:48.842Z,2.90
2023-02-13T11:40:31.706Z,2.60
2023-02-13T11:42:59.853Z,2.70
2023-02-13T11:45:27.946Z,2.90
2023-02-13T11:47:56.900Z,3.10
2023-02-13T11:50:28.514Z,3.20
2023-02-13T11:53:05.582Z,3.30
2023-02-13T11:55:34.814Z,3.50
2023-02-13T11:58:05.358Z,3.50
2023-02-13T12:00:40.021Z,3.40
2023-02-13T12:03:30.513Z,3.40
2023-02-13T12:06:03.939Z,3.20
2023-02-13T12:08:35.304Z,3.10
2023-02-13T12:11:07.870Z,3.20
2023-02-13T12:13:39.681Z,3.10
2023-02-13T12:16:12.769Z,3.40
2023-02-13T12:18:46.440Z,3.80
2023-02-13T12:21:30.081Z,3.90
2023-02-13T12:24:05.369Z,3.70
2023-02-13T12:26:36.354Z,3.60
2023-02-13T12:29:26.182Z,3.60
2023-02-13T12:32:07.213Z,3.90
2023-02-13T12:35:09.988Z,3.90
2023-02-13T12:38:04.271Z,4.10
2023-02-13T12:41:02.197Z,4.10
2023-02-13T12:44:12.292Z,4.10
2023-02-13T12:46:52.740Z,4.20
2023-02-13T12:49:36.481Z,4.20
2023-02-13T12:52:22.672Z,4.50
2023-02-13T12:55:06.401Z,4.50
2023-02-13T12:57:53.840Z,4.60
2023-02-13T13:00:35.884Z,4.70
2023-02-13T13:03:24.858Z,4.90
2023-02-13T13:06:17.787Z,5.00
2023-02-13T13:08:58.312Z,5.20
2023-02-13T13:11:43.847Z,5.20
2023-02-13T13:14:21.813Z,5.00
2023-02-13T13:16:56.741Z,5.10
2023-02-13T13:19:32.400Z,5.20
2023-02-13T13:22:06.624Z,5.10
2023-02-13T13:24:50.363Z,5.00
2023-02-13T13:27:22.008Z,5.10
2023-02-13T13:29:56.998Z,5.10
2023-02-13T13:32:27.056Z,5.20
2023-02-13T13:37:30.818Z,5.30
2023-02-13T13:40:04.918Z,5.30
2023-02-13T13:42:40.264Z,5.30
2023-02-13T13:45:26.885Z,5.10
2023-02-13T13:48:11.276Z,5.00
2023-02-13T13:50:43.606Z,5.10
2023-02-13T13:53:14.748Z,4.90
2023-02-13T13:56:09.324Z,4.80
2023-02-13T13:58:40.669Z,4.70
2023-02-13T14:01:30.744Z,4.70
2023-02-13T14:04:00.275Z,4.80
2023-02-13T14:06:30.038Z,5.00
2023-02-13T14:09:04.005Z,5.20
2023-02-13T14:11:38.357Z,5.30
2023-02-13T14:14:52.532Z,5.20
2023-02-13T14:17:55.832Z,5.10
2023-02-13T14:20:34.900Z,5.10
2023-02-13T14:23:39.706Z,5.20
2023-02-13T14:26:36.456Z,5.30
2023-02-13T14:29:28.474Z,5.20
2023-02-13T14:32:06.660Z,5.20
2023-02-13T14:34:40.071Z,5.40
2023-02-13T14:37:21.006Z,5.30
2023-02-13T14:40:32.076Z,5.40
2023-02-13T14:43:05.770Z,5.40
2023-02-13T14:45:37.213Z,5.50
2023-02-13T14:48:12.683Z,5.40
2023-02-13T14:50:47.379Z,5.30
2023-02-13T14:53:26.486Z,5.20
2023-02-13T14:56:01.066Z,5.20
2023-02-13T14:58:33.607Z,5.20
2023-02-13T15:01:05.813Z,5.20
2023-02-13T15:03:39.338Z,4.90
2023-02-13T15:06:15.245Z,4.90
2023-02-13T15:08:48.983Z,4.80
2023-02-13T15:11:42.975Z,4.70
2023-02-13T15:14:31.238Z,4.70
2023-02-13T15:17:03.961Z,4.60
2023-02-13T15:22:03.057Z,4.40
2023-02-13T15:24:36.718Z,4.40
2023-02-13T15:27:06.568Z,4.30
2023-02-13T15:29:47.935Z,4.20
2023-02-13T15:32:21.737Z,4.20
2023-02-13T15:34:53.199Z,4.00
2023-02-13T15:37:28.878Z,3.90
2023-02-13T15:39:56.927Z,3.80
2023-02-13T15:42:24.935Z,3.70
2023-02-13T15:44:57.477Z,3.60
2023-02-13T15:47:29.658Z,3.60
2023-02-13T15:49:57.993Z,3.60
2023-02-13T15:52:32.939Z,3.70
2023-02-13T15:55:01.554Z,3.70
2023-02-13T15:57:30.108Z,3.70
2023-02-13T16:00:00.378Z,3.60
2023-02-13T16:02:34.827Z,3.50
2023-02-13T16:05:03.626Z,3.40
2023-02-13T16:07:50.821Z,4.40
2023-02-13T16:10:26.503Z,3.20
2023-02-13T16:12:55.545Z,3.00
2023-02-13T16:15:27.808Z,2.90
2023-02-13T16:17:56.562Z,2.80
2023-02-13T16:20:26.923Z,2.70
2023-02-13T16:22:59.114Z,2.60
2023-02-13T16:25:29.774Z,2.50
2023-02-13T16:27:59.563Z,2.40
2023-02-13T16:30:33.875Z,2.30
2023-02-13T16:33:28.081Z,2.30
2023-02-13T16:35:57.788Z,2.20
2023-02-13T16:38:33.930Z,2.00
2023-02-13T16:41:03.480Z,1.90
2023-02-13T16:43:36.613Z,1.80
2023-02-13T16:46:34.713Z,1.70
2023-02-13T16:49:19.123Z,1.60
2023-02-13T16:51:51.250Z,1.50
2023-02-13T16:54:26.375Z,1.40
2023-02-13T16:56:57.674Z,1.30
2023-02-13T16:59:29.841Z,1.30
2023-02-13T17:02:15.460Z,1.20
2023-02-13T17:04:48.871Z,1.20
2023-02-13T17:07:20.230Z,1.30
2023-02-13T17:09:59.617Z,1.30
2023-02-13T17:12:29.926Z,1.30
2023-02-13T17:14:59.687Z,1.30
2023-02-13T17:17:29.792Z,1.30
2023-02-13T17:22:33.062Z,1.40
2023-02-13T17:25:04.659Z,1.40
2023-02-13T17:30:01.132Z,1.30
2023-02-13T17:32:30.030Z,1.30
2023-02-13T17:34:58.036Z,1.20
2023-02-13T17:37:27.929Z,1.20
2023-02-13T17:42:27.951Z,1.20
2023-02-13T17:44:57.825Z,1.20
2023-02-13T17:47:27.104Z,1.30
2023-02-13T17:50:01.968Z,1.30
2023-02-13T17:55:01.187Z,1.30
2023-02-13T17:57:30.526Z,1.30
2023-02-13T17:59:59.282Z,1.30
2023-02-13T18:04:56.077Z,1.40
2023-02-13T18:12:23.358Z,1.40
2023-02-13T18:14:53.888Z,1.40
2023-02-13T18:17:22.369Z,1.40
2023-02-13T18:22:19.526Z,1.40
2023-02-13T18:24:47.670Z,1.50
2023-02-13T18:29:44.198Z,1.50
2023-02-13T18:32:13.579Z,1.50
2023-02-13T18:34:41.946Z,1.50
2023-02-13T18:39:38.318Z,1.50
2023-02-13T18:42:06.424Z,1.50
2023-02-13T18:44:34.666Z,1.50
2023-02-13T18:49:32.451Z,1.50
2023-02-13T18:54:29.962Z,1.50
2023-02-13T18:56:57.932Z,1.50
2023-02-13T18:59:26.013Z,1.50
2023-02-13T19:01:53.972Z,1.50
2023-02-13T19:04:21.955Z,1.50
2023-02-13T19:06:51.286Z,1.50
2023-02-13T19:09:19.253Z,1.50
2023-02-13T19:11:48.513Z,1.60
2023-02-13T19:14:16.915Z,1.50
2023-02-13T19:19:13.573Z,1.60
2023-02-13T19:21:41.726Z,1.60
2023-02-13T19:24:15.224Z,1.60
2023-02-13T19:26:44.564Z,1.60
2023-02-13T19:29:12.651Z,1.60
2023-02-13T19:36:38.290Z,1.60
2023-02-13T19:39:09.079Z,1.60
2023-02-13T19:41:40.569Z,1.60
2023-02-13T19:44:09.013Z,1.60
2023-02-13T19:46:37.977Z,1.60
2023-02-13T19:49:06.691Z,1.60
2023-02-13T19:51:38.349Z,1.60
2023-02-13T19:54:08.111Z,4.60
2023-02-13T19:56:39.855Z,1.60
2023-02-13T19:59:12.344Z,1.60
2023-02-13T20:06:39.849Z,1.60
2023-02-13T20:09:09.913Z,1.60
2023-02-13T20:11:40.251Z,1.60
2023-02-13T20:19:11.629Z,1.60
2023-02-13T20:26:40.374Z,1.70
2023-02-13T20:29:09.250Z,1.60
2023-02-13T20:31:39.597Z,1.50
2023-02-13T20:34:08.553Z,1.60
2023-02-13T20:39:07.315Z,1.50
2023-02-13T20:41:37.496Z,1.50
2023-02-13T20:44:08.952Z,1.50
2023-02-13T20:46:38.836Z,1.50
2023-02-13T20:49:07.450Z,1.50
2023-02-13T20:51:36.332Z,1.50
2023-02-13T20:56:33.335Z,1.40
2023-02-13T20:59:02.554Z,1.40
2023-02-13T21:01:34.148Z,1.40
2023-02-13T21:04:02.599Z,1.40
2023-02-13T21:06:32.760Z,1.50
2023-02-13T21:11:29.975Z,1.50
2023-02-13T21:13:58.400Z,1.50
2023-02-13T21:16:28.406Z,1.50
2023-02-13T21:19:00.448Z,1.40
2023-02-13T21:21:31.326Z,1.40
2023-02-13T21:24:00.986Z,1.40
2023-02-13T21:28:57.795Z,1.50
2023-02-13T21:31:29.375Z,2.20
2023-02-13T21:34:02.951Z,1.40
2023-02-13T21:36:31.999Z,1.40
2023-02-13T21:46:26.818Z,1.40
2023-02-13T21:48:56.648Z,1.40
2023-02-13T21:51:27.400Z,1.40
2023-02-13T21:56:26.362Z,1.40
2023-02-13T21:58:55.070Z,1.40
2023-02-13T22:01:26.956Z,1.40
2023-02-13T22:06:29.598Z,1.50
2023-02-13T22:08:58.992Z,1.50
2023-02-13T22:13:56.904Z,1.50
2023-02-13T22:16:25.734Z,1.50
2023-02-13T22:18:53.765Z,1.50
2023-02-13T22:21:23.622Z,1.50
2023-02-13T22:23:54.221Z,1.50
2023-02-13T22:26:24.831Z,1.50
2023-02-13T22:28:53.845Z,1.50
2023-02-13T22:31:25.549Z,1.50
2023-02-13T22:39:02.347Z,1.50
2023-02-13T22:41:30.689Z,1.50
2023-02-13T22:43:59.296Z,1.40
2023-02-13T22:46:29.448Z,1.40
2023-02-13T22:48:58.404Z,1.40
2023-02-13T22:51:28.911Z,1.30
2023-02-13T22:53:58.102Z,1.20
2023-02-13T22:56:29.473Z,1.20
2023-02-13T22:58:58.127Z,1.10
2023-02-13T23:01:27.904Z,1.00
2023-02-13T23:06:25.550Z,0.80
2023-02-13T23:11:41.518Z,0.80
2023-02-13T23:14:11.104Z,0.70
2023-02-13T23:16:57.005Z,0.70
2023-02-13T23:21:55.759Z,0.70
2023-02-13T23:26:52.298Z,0.70
2023-02-13T23:29:22.112Z,0.70
2023-02-13T23:31:50.273Z,0.70
2023-02-13T23:46:41.668Z,0.70
